createdAt,value
2023-05-03T00:00:23.872Z,101279.63
2023-05-03T00:02:54.073Z,101291.13
2023-05-03T00:05:22.258Z,101291.13
2023-05-03T00:07:50.333Z,101276.84
2023-05-03T00:10:18.370Z,101284.22
2023-05-03T00:12:47.629Z,101286.91
2023-05-03T00:15:15.562Z,101288.34
2023-05-03T00:17:43.498Z,101278.91
2023-05-03T00:20:13.207Z,101292.34
2023-05-03T00:22:41.192Z,101291.88
2023-05-03T00:25:10.194Z,101290.38
2023-05-03T00:27:38.543Z,101293.91
2023-05-03T00:30:09.676Z,101291.22
2023-05-03T00:32:37.826Z,101298.50
2023-05-03T00:35:06.800Z,101302.25
2023-05-03T00:37:34.755Z,101289.22
2023-05-03T00:40:02.951Z,101300.81
2023-05-03T00:42:31.065Z,101300.63
2023-05-03T00:44:58.978Z,101298.03
2023-05-03T00:47:28.307Z,101296.84
2023-05-03T00:49:56.371Z,101291.91
2023-05-03T00:52:24.367Z,101291.31
2023-05-03T00:54:53.019Z,101294.06
2023-05-03T00:57:22.855Z,101274.91
2023-05-03T00:59:51.091Z,101280.47
2023-05-03T01:02:19.014Z,101279.25
2023-05-03T01:04:48.409Z,101277.59
2023-05-03T01:07:24.945Z,101268.75
2023-05-03T01:10:01.684Z,101276.03
2023-05-03T01:12:45.276Z,101279.53
2023-05-03T01:15:18.437Z,101264.09
2023-05-03T01:17:51.262Z,101274.81
2023-05-03T01:20:25.837Z,101265.56
2023-05-03T01:23:02.967Z,101269.22
2023-05-03T01:25:32.821Z,101267.69
2023-05-03T01:28:01.627Z,101267.91
2023-05-03T01:30:31.929Z,101259.78
2023-05-03T01:33:06.135Z,101253.09
2023-05-03T01:35:37.951Z,101246.50
2023-05-03T01:38:06.491Z,101247.28
2023-05-03T01:40:43.318Z,101243.16
2023-05-03T01:43:13.399Z,101247.44
2023-05-03T01:45:42.073Z,101244.13
2023-05-03T01:48:16.131Z,101250.44
2023-05-03T01:50:44.299Z,101252.72
2023-05-03T01:53:12.260Z,101245.09
2023-05-03T01:55:41.556Z,101253.53
2023-05-03T01:58:09.465Z,101246.69
2023-05-03T02:00:37.379Z,101237.56
2023-05-03T02:03:05.554Z,101239.47
2023-05-03T02:05:33.485Z,101243.69
2023-05-03T02:08:01.410Z,101235.38
2023-05-03T02:10:29.304Z,101241.25
2023-05-03T02:12:58.833Z,101229.78
2023-05-03T02:15:26.739Z,101242.28
2023-05-03T02:17:55.751Z,101239.78
2023-05-03T02:20:23.774Z,101248.81
2023-05-03T02:22:51.732Z,101238.19
2023-05-03T02:25:19.628Z,101247.94
2023-05-03T02:27:47.520Z,101237.41
2023-05-03T02:30:17.050Z,101230.69
2023-05-03T02:32:45.039Z,101229.75
2023-05-03T02:35:13.154Z,101233.31
2023-05-03T02:37:41.072Z,101221.69
2023-05-03T02:40:11.140Z,101223.78
2023-05-03T02:42:39.334Z,101228.09
2023-05-03T02:45:08.324Z,101242.19
2023-05-03T02:47:37.728Z,101236.31
2023-05-03T02:50:06.619Z,101239.03
2023-05-03T02:52:34.659Z,101245.00
2023-05-03T02:55:02.655Z,101246.63
2023-05-03T02:57:30.858Z,101248.44
2023-05-03T02:59:58.797Z,101250.59
2023-05-03T03:02:26.783Z,101256.75
2023-05-03T03:04:56.054Z,101264.81
2023-05-03T03:07:23.934Z,101257.56
2023-05-03T03:09:51.842Z,101262.16
2023-05-03T03:12:19.750Z,101258.91
2023-05-03T03:14:47.626Z,101253.84
2023-05-03T03:17:15.553Z,101256.13
2023-05-03T03:19:43.485Z,101268.31
2023-05-03T03:22:12.860Z,101257.88
2023-05-03T03:24:40.795Z,101270.44
2023-05-03T03:27:08.704Z,101278.09
2023-05-03T03:29:36.684Z,101283.13
2023-05-03T03:32:04.742Z,101283.28
2023-05-03T03:34:33.157Z,101287.84
2023-05-03T03:37:01.136Z,101288.59
2023-05-03T03:39:30.454Z,101285.88
2023-05-03T03:41:58.376Z,101286.78
2023-05-03T03:44:26.330Z,101277.56
2023-05-03T03:46:54.240Z,101272.44
2023-05-03T03:49:22.149Z,101272.59
2023-05-03T03:51:50.040Z,101269.09
2023-05-03T03:54:17.995Z,101267.19
2023-05-03T03:56:47.308Z,101274.72
2023-05-03T03:59:15.229Z,101275.03
2023-05-03T04:01:43.170Z,101273.56
2023-05-03T04:04:11.251Z,101280.00
2023-05-03T04:06:39.233Z,101268.28
2023-05-03T04:09:07.161Z,101272.56
2023-05-03T04:11:35.086Z,101274.06
2023-05-03T04:14:04.602Z,101281.22
2023-05-03T04:16:32.652Z,101281.72
2023-05-03T04:19:02.167Z,101280.72
2023-05-03T04:21:30.065Z,101285.19
2023-05-03T04:23:58.071Z,101291.13
2023-05-03T04:26:31.661Z,101293.91
2023-05-03T04:29:00.155Z,101290.53
2023-05-03T04:31:30.168Z,101293.59
2023-05-03T04:33:58.115Z,101287.94
2023-05-03T04:36:26.733Z,101287.06
2023-05-03T04:38:54.634Z,101301.56
2023-05-03T04:41:22.961Z,101297.72
2023-05-03T04:43:50.893Z,101279.06
2023-05-03T04:46:19.390Z,101303.31
2023-05-03T04:48:48.718Z,101295.81
2023-05-03T04:51:16.640Z,101297.44
2023-05-03T04:53:44.529Z,101296.81
2023-05-03T04:56:12.493Z,101305.06
2023-05-03T04:58:40.472Z,101299.38
2023-05-03T05:01:08.416Z,101295.38
2023-05-03T05:03:36.524Z,101293.75
2023-05-03T05:06:07.041Z,101288.97
2023-05-03T05:08:34.957Z,101301.91
2023-05-03T05:11:03.968Z,101310.72
2023-05-03T05:13:32.233Z,101302.41
2023-05-03T05:16:00.162Z,101302.81
2023-05-03T05:18:28.157Z,101304.09
2023-05-03T05:20:56.587Z,101304.84
2023-05-03T05:23:25.897Z,101313.75
2023-05-03T05:25:54.202Z,101318.50
2023-05-03T05:28:22.113Z,101319.84
2023-05-03T05:30:50.304Z,101313.09
2023-05-03T05:33:19.362Z,101317.44
2023-05-03T05:35:48.534Z,101316.19
2023-05-03T05:38:18.594Z,101311.78
2023-05-03T05:40:47.876Z,101318.00
2023-05-03T05:43:15.773Z,101316.56
2023-05-03T05:45:43.712Z,101320.22
2023-05-03T05:48:11.616Z,101317.78
2023-05-03T05:50:39.615Z,101313.31
2023-05-03T05:53:09.125Z,101305.06
2023-05-03T05:55:37.135Z,101325.88
2023-05-03T05:58:06.610Z,101328.06
2023-05-03T06:00:34.781Z,101332.25
2023-05-03T06:03:02.736Z,101331.03
2023-05-03T06:05:30.763Z,101343.56
2023-05-03T06:07:58.719Z,101348.66
2023-05-03T06:10:26.652Z,101346.78
2023-05-03T06:12:54.557Z,101338.41
2023-05-03T06:15:23.875Z,101346.97
2023-05-03T06:17:51.823Z,101352.06
2023-05-03T06:20:19.898Z,101353.72
2023-05-03T06:22:47.817Z,101352.66
2023-05-03T06:25:17.837Z,101354.94
2023-05-03T06:27:46.085Z,101354.72
2023-05-03T06:30:14.518Z,101354.63
2023-05-03T06:32:44.159Z,101348.97
2023-05-03T06:35:12.635Z,101356.78
2023-05-03T06:37:40.609Z,101350.97
2023-05-03T06:40:09.495Z,101350.16
2023-05-03T06:42:37.458Z,101348.47
2023-05-03T06:45:06.221Z,101344.25
2023-05-03T06:47:34.164Z,101356.75
2023-05-03T06:50:03.844Z,101361.63
2023-05-03T06:52:32.248Z,101353.88
2023-05-03T06:55:00.202Z,101369.81
2023-05-03T06:57:28.963Z,101367.94
2023-05-03T06:59:57.038Z,101369.41
2023-05-03T07:02:26.085Z,101376.22
2023-05-03T07:04:54.165Z,101378.94
2023-05-03T07:07:23.588Z,101380.69
2023-05-03T07:09:51.671Z,101380.28
2023-05-03T07:12:19.591Z,101387.81
2023-05-03T07:14:47.494Z,101392.84
2023-05-03T07:17:15.927Z,101399.03
2023-05-03T07:19:43.822Z,101399.16
2023-05-03T07:22:13.285Z,101390.41
2023-05-03T07:24:42.715Z,101391.50
2023-05-03T07:27:10.836Z,101393.22
2023-05-03T07:29:38.859Z,101378.50
2023-05-03T07:32:07.219Z,101380.97
2023-05-03T07:34:35.117Z,101394.03
2023-05-03T07:37:03.144Z,101389.88
2023-05-03T07:39:31.149Z,101383.69
2023-05-03T07:42:00.451Z,101390.81
2023-05-03T07:44:28.354Z,101390.00
2023-05-03T07:46:56.582Z,101376.56
2023-05-03T07:49:24.462Z,101367.22
2023-05-03T07:51:52.580Z,101381.66
2023-05-03T07:54:20.465Z,101398.06
2023-05-03T07:56:48.669Z,101405.09
2023-05-03T07:59:18.020Z,101384.13
2023-05-03T08:01:45.918Z,101392.09
2023-05-03T08:04:14.139Z,101383.41
2023-05-03T08:06:43.155Z,101383.28
2023-05-03T08:09:11.729Z,101379.59
2023-05-03T08:11:40.623Z,101380.53
2023-05-03T08:14:10.356Z,101354.63
2023-05-03T08:16:40.018Z,101367.63
2023-05-03T08:19:08.138Z,101355.81
2023-05-03T08:21:36.106Z,101360.84
2023-05-03T08:24:06.089Z,101355.09
2023-05-03T08:26:34.312Z,101362.44
2023-05-03T08:29:03.612Z,101363.41
2023-05-03T08:31:31.798Z,101356.94
2023-05-03T08:34:01.686Z,101355.00
2023-05-03T08:36:29.602Z,101350.84
2023-05-03T08:38:57.526Z,101360.72
2023-05-03T08:41:30.812Z,101353.91
2023-05-03T08:44:00.354Z,101354.56
2023-05-03T08:46:30.819Z,101351.91
2023-05-03T08:49:01.170Z,101351.81
2023-05-03T08:51:29.119Z,101342.97
2023-05-03T08:53:57.034Z,101345.59
2023-05-03T08:56:30.369Z,101345.00
2023-05-03T08:59:04.907Z,101327.38
2023-05-03T09:01:33.039Z,101322.88
2023-05-03T09:04:03.409Z,101333.53
2023-05-03T09:06:33.376Z,101318.25
2023-05-03T09:09:02.335Z,101322.81
2023-05-03T09:11:32.354Z,101322.16
2023-05-03T09:14:10.272Z,101318.50
2023-05-03T09:16:39.129Z,101313.41
2023-05-03T09:19:11.892Z,101313.00
2023-05-03T09:21:40.483Z,101313.13
2023-05-03T09:24:15.656Z,101302.00
2023-05-03T09:26:45.543Z,101300.03
2023-05-03T09:29:29.431Z,101297.41
2023-05-03T09:32:01.539Z,101300.19
2023-05-03T09:34:31.854Z,101314.75
2023-05-03T09:37:00.191Z,101308.78
2023-05-03T09:39:28.660Z,101306.13
2023-05-03T09:41:57.006Z,101310.72
2023-05-03T09:44:41.736Z,101314.31
2023-05-03T09:47:10.036Z,101320.38
2023-05-03T09:49:40.084Z,101314.97
2023-05-03T09:52:09.598Z,101307.00
2023-05-03T09:54:37.589Z,101313.56
2023-05-03T09:57:06.660Z,101307.22
2023-05-03T09:59:35.694Z,101310.44
2023-05-03T10:02:06.060Z,101300.81
2023-05-03T10:04:41.783Z,101315.13
2023-05-03T10:07:14.333Z,101312.53
2023-05-03T10:09:45.528Z,101298.03
2023-05-03T10:12:16.815Z,101291.53
2023-05-03T10:14:46.793Z,101279.88
2023-05-03T10:17:20.012Z,101282.78
2023-05-03T10:19:54.146Z,101282.69
2023-05-03T10:22:22.137Z,101279.06
2023-05-03T10:25:09.810Z,101267.81
2023-05-03T10:27:52.508Z,101277.53
2023-05-03T10:30:32.489Z,101275.91
2023-05-03T10:33:01.248Z,101266.66
2023-05-03T10:35:31.441Z,101260.09
2023-05-03T10:37:59.609Z,101269.81
2023-05-03T10:40:43.083Z,101276.38
2023-05-03T10:43:44.720Z,101273.09
2023-05-03T10:46:35.012Z,101262.09
2023-05-03T10:49:19.908Z,101260.44
2023-05-03T10:51:49.584Z,101251.28
2023-05-03T10:54:19.551Z,101252.66
2023-05-03T10:56:57.259Z,101253.94
2023-05-03T10:59:26.111Z,101247.53
2023-05-03T11:01:55.360Z,101256.97
2023-05-03T11:04:35.175Z,101252.53
2023-05-03T11:07:04.748Z,101228.78
2023-05-03T11:09:34.436Z,101239.69
2023-05-03T11:12:06.363Z,101226.47
2023-05-03T11:14:34.290Z,101226.25
2023-05-03T11:17:02.469Z,101208.16
2023-05-03T11:19:30.828Z,101213.81
2023-05-03T11:21:59.018Z,101207.31
2023-05-03T11:24:28.518Z,101210.13
2023-05-03T11:26:57.240Z,101209.91
2023-05-03T11:29:26.202Z,101219.38
2023-05-03T11:31:54.256Z,101221.59
2023-05-03T11:34:22.230Z,101220.66
2023-05-03T11:36:51.230Z,101214.09
2023-05-03T11:39:20.817Z,101216.88
2023-05-03T11:42:04.617Z,101217.31
2023-05-03T11:44:32.916Z,101202.13
2023-05-03T11:47:01.535Z,101204.47
2023-05-03T11:49:29.725Z,101185.78
2023-05-03T11:51:57.951Z,101205.56
2023-05-03T11:54:27.960Z,101203.28
2023-05-03T11:57:00.975Z,101203.03
2023-05-03T11:59:38.280Z,101197.22
2023-05-03T12:02:09.519Z,101198.59
2023-05-03T12:04:41.622Z,101190.03
2023-05-03T12:07:11.555Z,101202.91
2023-05-03T12:09:41.076Z,101186.41
2023-05-03T12:12:11.175Z,101194.47
2023-05-03T12:15:11.272Z,101171.69
2023-05-03T12:17:44.903Z,101166.09
2023-05-03T12:22:51.361Z,101169.31
2023-05-03T12:25:20.796Z,101169.25
2023-05-03T12:28:01.934Z,101181.19
2023-05-03T12:30:40.750Z,101144.97
2023-05-03T12:33:10.448Z,101178.41
2023-05-03T12:35:40.786Z,101161.53
2023-05-03T12:38:10.482Z,101170.25
2023-05-03T12:40:39.729Z,101161.25
2023-05-03T12:43:08.094Z,101155.09
2023-05-03T12:45:39.943Z,101153.84
2023-05-03T12:48:10.492Z,101158.84
2023-05-03T12:50:39.386Z,101149.03
2023-05-03T12:53:09.912Z,101139.78
2023-05-03T12:55:42.660Z,101146.25
2023-05-03T13:01:03.206Z,101144.19
2023-05-03T13:03:34.578Z,101126.38
2023-05-03T13:06:13.312Z,101120.34
2023-05-03T13:08:49.403Z,101121.53
2023-05-03T13:11:19.329Z,101118.28
2023-05-03T13:13:47.694Z,101129.38
2023-05-03T13:16:16.098Z,101103.94
2023-05-03T13:18:45.549Z,101118.84
2023-05-03T13:21:13.699Z,101116.41
2023-05-03T13:23:41.647Z,101116.94
2023-05-03T13:26:09.593Z,101110.13
2023-05-03T13:28:37.531Z,101112.00
2023-05-03T13:31:05.627Z,101102.19
2023-05-03T13:33:37.992Z,101088.84
2023-05-03T13:36:08.057Z,101090.28
2023-05-03T13:38:36.220Z,101086.63
2023-05-03T13:41:07.899Z,101082.25
2023-05-03T13:43:35.963Z,101080.03
2023-05-03T13:46:04.150Z,101070.91
2023-05-03T13:48:32.676Z,101082.06
2023-05-03T13:51:00.735Z,101072.75
2023-05-03T13:53:30.019Z,101070.22
2023-05-03T13:55:58.131Z,101074.72
2023-05-03T13:58:26.063Z,101070.50
2023-05-03T14:00:53.988Z,101065.19
2023-05-03T14:03:22.076Z,101064.16
2023-05-03T14:05:50.102Z,101073.59
2023-05-03T14:08:18.112Z,101063.88
2023-05-03T14:10:47.478Z,101064.22
2023-05-03T14:13:15.525Z,101079.31
2023-05-03T14:15:45.423Z,101077.88
2023-05-03T14:18:13.566Z,101078.16
2023-05-03T14:20:41.594Z,101084.16
2023-05-03T14:23:09.497Z,101081.13
2023-05-03T14:25:37.581Z,101065.78
2023-05-03T14:28:06.941Z,101050.88
2023-05-03T14:30:35.041Z,101067.78
2023-05-03T14:33:03.057Z,101061.56
2023-05-03T14:35:31.123Z,101050.06
2023-05-03T14:37:59.055Z,101039.50
2023-05-03T14:40:27.141Z,101032.41
2023-05-03T14:42:55.055Z,101045.88
2023-05-03T14:45:24.749Z,101056.13
2023-05-03T14:47:52.719Z,101068.00
2023-05-03T14:50:20.990Z,101062.84
2023-05-03T14:52:48.934Z,101067.16
2023-05-03T14:55:17.498Z,101071.31
2023-05-03T14:57:45.410Z,101071.09
2023-05-03T15:00:15.171Z,101068.13
2023-05-03T15:02:44.751Z,101076.84
2023-05-03T15:05:13.316Z,101069.16
2023-05-03T15:07:41.570Z,101071.16
2023-05-03T15:10:10.257Z,101063.22
2023-05-03T15:12:39.534Z,101051.16
2023-05-03T15:15:09.683Z,101059.19
2023-05-03T15:17:37.617Z,101044.00
2023-05-03T15:20:10.389Z,101039.34
2023-05-03T15:22:38.283Z,101036.47
2023-05-03T15:25:06.783Z,101037.59
2023-05-03T15:27:34.763Z,101043.69
2023-05-03T15:30:03.215Z,101028.19
2023-05-03T15:32:31.452Z,101022.69
2023-05-03T15:34:59.454Z,101029.63
2023-05-03T15:37:37.065Z,101018.81
2023-05-03T15:40:06.424Z,101011.31
2023-05-03T15:42:34.566Z,101021.56
2023-05-03T15:45:02.519Z,101020.34
2023-05-03T15:47:30.699Z,101015.44
2023-05-03T15:49:58.906Z,101007.97
2023-05-03T15:52:26.816Z,100976.06
2023-05-03T15:54:56.906Z,101013.78
2023-05-03T15:57:25.057Z,101007.41
2023-05-03T15:59:54.129Z,101011.47
2023-05-03T16:02:22.130Z,101016.28
2023-05-03T16:04:50.979Z,101007.28
2023-05-03T16:07:19.332Z,100998.94
2023-05-03T16:09:48.343Z,100999.06
2023-05-03T16:12:17.595Z,101013.16
2023-05-03T16:14:45.512Z,101005.25
2023-05-03T16:17:13.608Z,100997.19
2023-05-03T16:19:41.545Z,100996.72
2023-05-03T16:22:09.450Z,100998.09
2023-05-03T16:24:37.565Z,100976.16
2023-05-03T16:27:06.538Z,100980.91
2023-05-03T16:29:37.080Z,100991.16
2023-05-03T16:32:06.390Z,100997.22
2023-05-03T16:34:34.386Z,101001.66
2023-05-03T16:37:02.298Z,101014.38
2023-05-03T16:39:30.539Z,101004.38
2023-05-03T16:41:58.467Z,101006.63
2023-05-03T16:44:26.363Z,101008.88
2023-05-03T16:46:55.659Z,101015.16
2023-05-03T16:49:23.625Z,101007.75
2023-05-03T16:51:51.801Z,101019.25
2023-05-03T16:54:19.696Z,101017.06
2023-05-03T16:56:47.586Z,101011.22
2023-05-03T16:59:16.907Z,101020.63
2023-05-03T17:01:44.965Z,101028.72
2023-05-03T17:04:15.402Z,101027.16
2023-05-03T17:06:43.373Z,101030.19
2023-05-03T17:09:11.465Z,101036.00
2023-05-03T17:11:39.393Z,101042.34
2023-05-03T17:14:07.326Z,101034.19
2023-05-03T17:16:35.237Z,101046.66
2023-05-03T17:19:03.157Z,101054.63
2023-05-03T17:21:32.582Z,101052.50
2023-05-03T17:24:00.488Z,101055.28
2023-05-03T17:26:28.505Z,101060.34
2023-05-03T17:28:56.691Z,101054.72
2023-05-03T17:31:24.652Z,101067.38
2023-05-03T17:33:52.701Z,101080.97
2023-05-03T17:36:22.330Z,101091.09
2023-05-03T17:38:51.956Z,101076.41
2023-05-03T17:41:19.934Z,101099.78
2023-05-03T17:43:48.741Z,101093.69
2023-05-03T17:46:17.811Z,101107.03
2023-05-03T17:48:47.788Z,101119.94
2023-05-03T17:51:16.089Z,101113.22
2023-05-03T17:53:44.083Z,101124.94
2023-05-03T17:56:17.166Z,101135.75
2023-05-03T17:58:46.681Z,101144.69
2023-05-03T18:01:15.824Z,101154.22
2023-05-03T18:03:44.159Z,101156.66
2023-05-03T18:06:14.204Z,101169.50
2023-05-03T18:08:42.625Z,101180.81
2023-05-03T18:11:10.729Z,101173.28
2023-05-03T18:13:41.379Z,101168.50
2023-05-03T18:16:10.029Z,101181.56
2023-05-03T18:18:38.515Z,101186.59
2023-05-03T18:21:06.892Z,101188.06
2023-05-03T18:23:35.348Z,101191.47
2023-05-03T18:26:03.848Z,101187.66
2023-05-03T18:28:31.847Z,101198.72
2023-05-03T18:31:01.179Z,101191.06
2023-05-03T18:33:29.110Z,101197.38
2023-05-03T18:35:57.045Z,101178.97
2023-05-03T18:38:24.986Z,101193.25
2023-05-03T18:40:54.237Z,101196.53
2023-05-03T18:43:22.162Z,101200.06
2023-05-03T18:45:50.092Z,101195.03
2023-05-03T18:48:19.443Z,101192.97
2023-05-03T18:50:47.401Z,101190.06
2023-05-03T18:53:15.297Z,101213.72
2023-05-03T18:55:43.287Z,101199.56
2023-05-03T18:58:11.212Z,101213.97
2023-05-03T19:00:39.135Z,101197.22
2023-05-03T19:03:07.088Z,101203.84
2023-05-03T19:05:36.366Z,101189.47
2023-05-03T19:08:04.730Z,101197.63
2023-05-03T19:10:32.648Z,101209.31
2023-05-03T19:13:00.708Z,101224.97
2023-05-03T19:15:28.691Z,101241.13
2023-05-03T19:17:56.932Z,101239.13
2023-05-03T19:20:25.120Z,101239.84
2023-05-03T19:22:54.429Z,101253.50
2023-05-03T19:25:22.368Z,101252.03
2023-05-03T19:27:50.865Z,101252.03
2023-05-03T19:30:19.382Z,101257.56
2023-05-03T19:32:47.772Z,101241.88
2023-05-03T19:35:15.720Z,101227.19
2023-05-03T19:37:44.596Z,101208.25
2023-05-03T19:40:15.142Z,101236.28
2023-05-03T19:42:43.106Z,101240.31
2023-05-03T19:45:11.677Z,101233.72
2023-05-03T19:47:39.581Z,101232.78
2023-05-03T19:50:08.474Z,101223.84
2023-05-03T19:52:36.555Z,101211.06
2023-05-03T19:55:07.207Z,101219.84
2023-05-03T19:57:36.717Z,101239.88
2023-05-03T20:00:07.201Z,101241.34
2023-05-03T20:02:36.801Z,101236.31
2023-05-03T20:05:05.170Z,101247.66
2023-05-03T20:07:34.077Z,101232.22
2023-05-03T20:10:02.330Z,101227.34
2023-05-03T20:12:30.682Z,101220.88
2023-05-03T20:15:00.025Z,101210.47
2023-05-03T20:17:28.016Z,101226.31
2023-05-03T20:19:55.972Z,101225.25
2023-05-03T20:22:23.932Z,101212.78
2023-05-03T20:24:52.527Z,101230.72
2023-05-03T20:27:21.198Z,101233.78
2023-05-03T20:29:49.086Z,101232.97
2023-05-03T20:32:18.382Z,101244.69
2023-05-03T20:34:46.986Z,101240.91
2023-05-03T20:37:14.906Z,101240.69
2023-05-03T20:39:42.828Z,101245.47
2023-05-03T20:42:10.743Z,101233.16
2023-05-03T20:44:38.651Z,101241.44
2023-05-03T20:47:06.616Z,101235.59
2023-05-03T20:49:37.096Z,101239.75
2023-05-03T20:52:05.335Z,101246.78
2023-05-03T20:54:33.254Z,101247.97
2023-05-03T20:57:02.237Z,101263.09
2023-05-03T20:59:30.323Z,101270.75
2023-05-03T21:01:58.238Z,101268.78
2023-05-03T21:04:26.623Z,101268.56
2023-05-03T21:06:55.952Z,101256.34
2023-05-03T21:09:24.202Z,101257.34
2023-05-03T21:11:52.142Z,101261.00
2023-05-03T21:14:20.056Z,101261.91
2023-05-03T21:16:48.103Z,101263.09
2023-05-03T21:19:16.112Z,101252.56
2023-05-03T21:21:44.017Z,101261.13
2023-05-03T21:24:13.329Z,101259.66
2023-05-03T21:26:41.308Z,101248.13
2023-05-03T21:29:09.515Z,101251.56
2023-05-03T21:31:37.718Z,101250.97
2023-05-03T21:34:05.853Z,101246.34
2023-05-03T21:36:33.843Z,101242.75
2023-05-03T21:39:01.827Z,101236.09
2023-05-03T21:41:31.131Z,101224.19
2023-05-03T21:43:59.076Z,101216.84
2023-05-03T21:46:27.098Z,101211.00
2023-05-03T21:48:55.266Z,101208.13
2023-05-03T21:51:25.026Z,101202.44
2023-05-03T21:53:53.614Z,101204.28
2023-05-03T21:56:21.782Z,101195.69
2023-05-03T21:58:51.111Z,101198.56
2023-05-03T22:01:21.691Z,101202.44
2023-05-03T22:03:50.223Z,101200.06
2023-05-03T22:06:18.442Z,101204.78
2023-05-03T22:08:46.353Z,101201.22
2023-05-03T22:11:14.494Z,101188.75
2023-05-03T22:13:54.929Z,101175.91
2023-05-03T22:16:31.887Z,101182.75
2023-05-03T22:18:59.848Z,101188.47
2023-05-03T22:21:27.811Z,101192.69
2023-05-03T22:23:55.731Z,101178.94
2023-05-03T22:26:24.402Z,101188.34
2023-05-03T22:28:52.400Z,101183.78
2023-05-03T22:31:20.469Z,101176.56
2023-05-03T22:33:49.775Z,101177.69
2023-05-03T22:36:17.728Z,101159.47
2023-05-03T22:38:45.911Z,101170.50
2023-05-03T22:41:13.861Z,101173.38
2023-05-03T22:43:41.842Z,101177.06
2023-05-03T22:46:09.764Z,101173.88
2023-05-03T22:48:37.700Z,101173.78
2023-05-03T22:51:07.394Z,101176.31
2023-05-03T22:53:35.329Z,101169.88
2023-05-03T22:56:05.683Z,101170.59
2023-05-03T22:58:33.670Z,101172.69
2023-05-03T23:01:01.697Z,101170.31
2023-05-03T23:03:30.169Z,101161.78
2023-05-03T23:05:58.139Z,101169.06
2023-05-03T23:08:27.583Z,101163.88
2023-05-03T23:10:59.227Z,101172.44
2023-05-03T23:13:27.742Z,101165.50
2023-05-03T23:15:56.074Z,101152.66
2023-05-03T23:18:24.216Z,101144.25
2023-05-03T23:20:52.371Z,101154.50
2023-05-03T23:23:20.645Z,101152.41
2023-05-03T23:25:50.110Z,101174.19
2023-05-03T23:28:18.265Z,101168.31
2023-05-03T23:30:46.995Z,101168.09
2023-05-03T23:33:15.202Z,101167.47
2023-05-03T23:35:43.670Z,101181.78
2023-05-03T23:38:11.668Z,101160.50
2023-05-03T23:40:39.620Z,101157.41
2023-05-03T23:43:09.078Z,101145.09
2023-05-03T23:45:37.055Z,101147.59
2023-05-03T23:48:05.571Z,101150.63
2023-05-03T23:50:33.605Z,101154.81
2023-05-03T23:53:01.710Z,101156.94
2023-05-03T23:55:29.733Z,101157.19
2023-05-03T23:57:57.735Z,101164.06
